sensor_id;sensor_type;location;lat;lon;timestamp;pressure;altitude;pressure_sealevel;temperature;humidity
45991;BME280;31721;41.740;-88.000;2023-03-18T00:00:44;98523.20;;;-2.25;44.67
45991;BME280;31721;41.740;-88.000;2023-03-18T00:03:12;98532.92;;;-2.23;44.68
45991;BME280;31721;41.740;-88.000;2023-03-18T00:05:40;98535.69;;;-1.80;44.44
45991;BME280;31721;41.740;-88.000;2023-03-18T00:08:07;98536.81;;;-1.26;43.29
45991;BME280;31721;41.740;-88.000;2023-03-18T00:10:36;98550.10;;;-2.13;44.23
45991;BME280;31721;41.740;-88.000;2023-03-18T00:13:03;98547.57;;;-2.49;45.13
45991;BME280;31721;41.740;-88.000;2023-03-18T00:15:32;98554.32;;;-2.30;45.08
45991;BME280;31721;41.740;-88.000;2023-03-18T00:18:00;98560.03;;;-1.84;44.47
45991;BME280;31721;41.740;-88.000;2023-03-18T00:20:28;98573.04;;;-1.55;44.39
45991;BME280;31721;41.740;-88.000;2023-03-18T00:22:56;98564.65;;;-1.08;43.10
45991;BME280;31721;41.740;-88.000;2023-03-18T00:25:24;98576.96;;;-1.66;44.06
45991;BME280;31721;41.740;-88.000;2023-03-18T00:27:53;98568.76;;;-1.68;43.67
45991;BME280;31721;41.740;-88.000;2023-03-18T00:30:21;98572.08;;;-1.78;44.06
45991;BME280;31721;41.740;-88.000;2023-03-18T00:32:49;98573.41;;;-2.07;44.29
45991;BME280;31721;41.740;-88.000;2023-03-18T00:35:18;98572.33;;;-1.58;44.10
45991;BME280;31721;41.740;-88.000;2023-03-18T00:37:46;98581.32;;;-1.58;44.08
45991;BME280;31721;41.740;-88.000;2023-03-18T00:40:14;98581.56;;;-1.50;44.43
45991;BME280;31721;41.740;-88.000;2023-03-18T00:42:42;98588.80;;;-2.10;44.48
45991;BME280;31721;41.740;-88.000;2023-03-18T00:45:11;98588.93;;;-1.44;43.93
45991;BME280;31721;41.740;-88.000;2023-03-18T00:47:39;98586.12;;;-1.38;43.86
45991;BME280;31721;41.740;-88.000;2023-03-18T00:50:08;98600.75;;;-1.72;43.52
45991;BME280;31721;41.740;-88.000;2023-03-18T00:52:36;98593.90;;;-1.38;42.98
45991;BME280;31721;41.740;-88.000;2023-03-18T00:55:05;98599.61;;;-1.36;42.84
45991;BME280;31721;41.740;-88.000;2023-03-18T00:57:33;98605.21;;;-2.03;44.03
45991;BME280;31721;41.740;-88.000;2023-03-18T01:00:01;98609.57;;;-1.69;43.47
45991;BME280;31721;41.740;-88.000;2023-03-18T01:02:30;98611.69;;;-2.26;44.44
45991;BME280;31721;41.740;-88.000;2023-03-18T01:04:58;98610.49;;;-2.34;44.44
45991;BME280;31721;41.740;-88.000;2023-03-18T01:07:26;98618.90;;;-2.33;44.36
45991;BME280;31721;41.740;-88.000;2023-03-18T01:09:54;98618.62;;;-2.31;44.14
45991;BME280;31721;41.740;-88.000;2023-03-18T01:12:22;98622.22;;;-2.79;45.02
45991;BME280;31721;41.740;-88.000;2023-03-18T01:14:50;98625.35;;;-2.42;44.24
45991;BME280;31721;41.740;-88.000;2023-03-18T01:17:18;98630.33;;;-2.19;43.79
45991;BME280;31721;41.740;-88.000;2023-03-18T01:19:47;98630.27;;;-1.79;42.96
45991;BME280;31721;41.740;-88.000;2023-03-18T01:22:15;98635.84;;;-1.98;43.51
45991;BME280;31721;41.740;-88.000;2023-03-18T01:24:43;98634.07;;;-2.29;43.77
45991;BME280;31721;41.740;-88.000;2023-03-18T01:27:12;98635.60;;;-2.11;43.41
45991;BME280;31721;41.740;-88.000;2023-03-18T01:29:41;98638.43;;;-2.46;43.93
45991;BME280;31721;41.740;-88.000;2023-03-18T01:32:08;98643.71;;;-2.22;43.50
45991;BME280;31721;41.740;-88.000;2023-03-18T01:34:36;98654.22;;;-2.63;43.85
45991;BME280;31721;41.740;-88.000;2023-03-18T01:37:04;98657.98;;;-2.67;44.18
45991;BME280;31721;41.740;-88.000;2023-03-18T01:39:32;98657.79;;;-2.43;43.69
45991;BME280;31721;41.740;-88.000;2023-03-18T01:42:00;98660.60;;;-2.34;43.50
45991;BME280;31721;41.740;-88.000;2023-03-18T01:44:29;98663.26;;;-2.43;43.69
45991;BME280;31721;41.740;-88.000;2023-03-18T01:46:57;98666.47;;;-2.62;44.10
45991;BME280;31721;41.740;-88.000;2023-03-18T01:49:30;98661.84;;;-2.52;43.94
45991;BME280;31721;41.740;-88.000;2023-03-18T01:52:02;98667.22;;;-2.60;43.99
45991;BME280;31721;41.740;-88.000;2023-03-18T01:54:33;98667.49;;;-2.94;44.37
45991;BME280;31721;41.740;-88.000;2023-03-18T01:57:02;98668.41;;;-3.33;45.19
45991;BME280;31721;41.740;-88.000;2023-03-18T01:59:34;98671.37;;;-3.11;45.03
45991;BME280;31721;41.740;-88.000;2023-03-18T02:02:07;98662.81;;;-3.05;44.73
45991;BME280;31721;41.740;-88.000;2023-03-18T02:04:39;98671.84;;;-2.90;44.16
45991;BME280;31721;41.740;-88.000;2023-03-18T02:07:13;98676.40;;;-2.86;44.30
45991;BME280;31721;41.740;-88.000;2023-03-18T02:09:42;98675.33;;;-2.69;44.83
45991;BME280;31721;41.740;-88.000;2023-03-18T02:12:12;98682.42;;;-2.62;44.17
45991;BME280;31721;41.740;-88.000;2023-03-18T02:14:42;98686.10;;;-2.65;44.00
45991;BME280;31721;41.740;-88.000;2023-03-18T02:17:13;98682.28;;;-2.43;43.52
45991;BME280;31721;41.740;-88.000;2023-03-18T02:19:52;98682.24;;;-2.37;43.46
45991;BME280;31721;41.740;-88.000;2023-03-18T02:22:27;98677.75;;;-2.89;44.67
45991;BME280;31721;41.740;-88.000;2023-03-18T02:25:05;98680.67;;;-2.76;44.29
45991;BME280;31721;41.740;-88.000;2023-03-18T02:27:40;98680.23;;;-2.43;43.76
45991;BME280;31721;41.740;-88.000;2023-03-18T02:30:14;98678.60;;;-2.66;44.05
45991;BME280;31721;41.740;-88.000;2023-03-18T02:32:44;98677.52;;;-2.71;44.08
45991;BME280;31721;41.740;-88.000;2023-03-18T02:35:14;98678.76;;;-2.68;44.20
45991;BME280;31721;41.740;-88.000;2023-03-18T02:37:43;98681.20;;;-2.55;44.02
45991;BME280;31721;41.740;-88.000;2023-03-18T02:40:13;98687.07;;;-3.53;45.33
45991;BME280;31721;41.740;-88.000;2023-03-18T02:42:41;98685.37;;;-3.13;44.81
45991;BME280;31721;41.740;-88.000;2023-03-18T02:45:25;98673.44;;;-3.03;44.57
45991;BME280;31721;41.740;-88.000;2023-03-18T02:47:57;98684.54;;;-3.29;44.99
45991;BME280;31721;41.740;-88.000;2023-03-18T02:50:26;98683.40;;;-3.53;44.66
45991;BME280;31721;41.740;-88.000;2023-03-18T02:52:54;98683.46;;;-3.89;45.46
45991;BME280;31721;41.740;-88.000;2023-03-18T02:55:21;98679.54;;;-3.55;45.21
45991;BME280;31721;41.740;-88.000;2023-03-18T02:57:50;98682.85;;;-3.23;44.69
45991;BME280;31721;41.740;-88.000;2023-03-18T03:00:18;98687.37;;;-3.43;45.04
45991;BME280;31721;41.740;-88.000;2023-03-18T03:02:46;98680.38;;;-3.51;45.41
45991;BME280;31721;41.740;-88.000;2023-03-18T03:05:14;98684.85;;;-3.70;45.43
45991;BME280;31721;41.740;-88.000;2023-03-18T03:07:43;98680.72;;;-3.40;45.17
45991;BME280;31721;41.740;-88.000;2023-03-18T03:10:12;98684.16;;;-3.37;45.08
45991;BME280;31721;41.740;-88.000;2023-03-18T03:12:40;98680.37;;;-3.24;45.01
45991;BME280;31721;41.740;-88.000;2023-03-18T03:15:08;98681.07;;;-3.42;45.18
45991;BME280;31721;41.740;-88.000;2023-03-18T03:17:36;98685.67;;;-3.46;45.34
45991;BME280;31721;41.740;-88.000;2023-03-18T03:20:06;98688.01;;;-3.56;45.33
45991;BME280;31721;41.740;-88.000;2023-03-18T03:22:34;98689.00;;;-3.66;45.50
45991;BME280;31721;41.740;-88.000;2023-03-18T03:25:02;98688.10;;;-4.05;46.16
45991;BME280;31721;41.740;-88.000;2023-03-18T03:27:30;98692.94;;;-4.19;46.39
45991;BME280;31721;41.740;-88.000;2023-03-18T03:29:58;98697.22;;;-4.04;46.45
45991;BME280;31721;41.740;-88.000;2023-03-18T03:32:26;98689.39;;;-4.38;46.78
45991;BME280;31721;41.740;-88.000;2023-03-18T03:34:54;98690.37;;;-3.94;46.49
45991;BME280;31721;41.740;-88.000;2023-03-18T03:37:22;98685.05;;;-4.12;46.58
45991;BME280;31721;41.740;-88.000;2023-03-18T03:39:50;98682.51;;;-4.11;46.61
45991;BME280;31721;41.740;-88.000;2023-03-18T03:42:18;98682.65;;;-3.98;46.01
45991;BME280;31721;41.740;-88.000;2023-03-18T03:44:46;98678.38;;;-4.13;45.98
45991;BME280;31721;41.740;-88.000;2023-03-18T03:47:14;98677.62;;;-4.04;45.36
45991;BME280;31721;41.740;-88.000;2023-03-18T03:49:42;98673.44;;;-3.88;45.18
45991;BME280;31721;41.740;-88.000;2023-03-18T03:52:10;98680.00;;;-4.04;45.82
45991;BME280;31721;41.740;-88.000;2023-03-18T03:54:38;98669.82;;;-4.34;45.74
45991;BME280;31721;41.740;-88.000;2023-03-18T03:57:05;98665.08;;;-4.56;45.97
45991;BME280;31721;41.740;-88.000;2023-03-18T03:59:33;98665.64;;;-4.58;45.46
45991;BME280;31721;41.740;-88.000;2023-03-18T04:02:02;98662.23;;;-4.61;45.93
45991;BME280;31721;41.740;-88.000;2023-03-18T04:04:29;98669.94;;;-4.15;45.69
45991;BME280;31721;41.740;-88.000;2023-03-18T04:06:57;98669.15;;;-3.55;44.50
45991;BME280;31721;41.740;-88.000;2023-03-18T04:09:25;98669.42;;;-4.04;45.04
45991;BME280;31721;41.740;-88.000;2023-03-18T04:11:54;98672.99;;;-4.24;45.02
45991;BME280;31721;41.740;-88.000;2023-03-18T04:14:21;98671.77;;;-3.94;44.33
45991;BME280;31721;41.740;-88.000;2023-03-18T04:16:49;98674.30;;;-4.05;43.82
45991;BME280;31721;41.740;-88.000;2023-03-18T04:19:18;98690.28;;;-4.30;44.26
45991;BME280;31721;41.740;-88.000;2023-03-18T04:21:45;98686.87;;;-4.10;43.57
45991;BME280;31721;41.740;-88.000;2023-03-18T04:24:14;98685.41;;;-4.34;43.80
45991;BME280;31721;41.740;-88.000;2023-03-18T04:26:42;98682.05;;;-4.52;44.00
45991;BME280;31721;41.740;-88.000;2023-03-18T04:29:10;98683.76;;;-4.45;43.86
45991;BME280;31721;41.740;-88.000;2023-03-18T04:31:38;98691.71;;;-4.76;44.20
45991;BME280;31721;41.740;-88.000;2023-03-18T04:34:06;98693.58;;;-5.01;44.49
45991;BME280;31721;41.740;-88.000;2023-03-18T04:36:34;98695.94;;;-4.72;44.54
45991;BME280;31721;41.740;-88.000;2023-03-18T04:39:03;98698.98;;;-5.15;44.95
45991;BME280;31721;41.740;-88.000;2023-03-18T04:41:31;98693.00;;;-5.39;45.78
45991;BME280;31721;41.740;-88.000;2023-03-18T04:43:58;98688.09;;;-5.24;45.17
45991;BME280;31721;41.740;-88.000;2023-03-18T04:46:26;98687.14;;;-4.73;44.69
45991;BME280;31721;41.740;-88.000;2023-03-18T04:48:54;98682.76;;;-4.97;45.31
45991;BME280;31721;41.740;-88.000;2023-03-18T04:51:22;98679.58;;;-4.68;44.62
45991;BME280;31721;41.740;-88.000;2023-03-18T04:53:50;98680.69;;;-4.97;44.97
45991;BME280;31721;41.740;-88.000;2023-03-18T04:56:19;98677.50;;;-6.02;45.59
45991;BME280;31721;41.740;-88.000;2023-03-18T04:58:47;98675.45;;;-5.98;45.63
45991;BME280;31721;41.740;-88.000;2023-03-18T05:01:15;98670.13;;;-5.59;45.58
45991;BME280;31721;41.740;-88.000;2023-03-18T05:03:42;98667.63;;;-5.52;45.37
45991;BME280;31721;41.740;-88.000;2023-03-18T05:06:19;98672.81;;;-5.67;45.19
45991;BME280;31721;41.740;-88.000;2023-03-18T05:08:47;98673.96;;;-5.86;43.89
45991;BME280;31721;41.740;-88.000;2023-03-18T05:11:15;98674.79;;;-5.43;44.46
45991;BME280;31721;41.740;-88.000;2023-03-18T05:13:43;98665.98;;;-5.31;43.69
45991;BME280;31721;41.740;-88.000;2023-03-18T05:16:11;98666.69;;;-4.85;42.86
45991;BME280;31721;41.740;-88.000;2023-03-18T05:18:39;98665.20;;;-5.36;42.89
45991;BME280;31721;41.740;-88.000;2023-03-18T05:21:07;98670.21;;;-5.55;43.31
45991;BME280;31721;41.740;-88.000;2023-03-18T05:23:36;98673.13;;;-5.52;43.25
45991;BME280;31721;41.740;-88.000;2023-03-18T05:26:04;98669.10;;;-5.56;43.30
45991;BME280;31721;41.740;-88.000;2023-03-18T05:28:33;98672.19;;;-5.55;43.07
45991;BME280;31721;41.740;-88.000;2023-03-18T05:31:00;98660.01;;;-5.77;43.76
45991;BME280;31721;41.740;-88.000;2023-03-18T05:33:29;98667.17;;;-5.72;43.07
45991;BME280;31721;41.740;-88.000;2023-03-18T05:35:57;98668.62;;;-5.82;42.91
45991;BME280;31721;41.740;-88.000;2023-03-18T05:38:25;98660.15;;;-5.63;42.90
45991;BME280;31721;41.740;-88.000;2023-03-18T05:40:53;98666.30;;;-6.68;42.71
45991;BME280;31721;41.740;-88.000;2023-03-18T05:43:21;98671.58;;;-6.47;42.96
45991;BME280;31721;41.740;-88.000;2023-03-18T05:45:50;98661.52;;;-6.65;42.68
45991;BME280;31721;41.740;-88.000;2023-03-18T05:48:18;98668.92;;;-7.21;42.58
45991;BME280;31721;41.740;-88.000;2023-03-18T05:50:46;98655.91;;;-6.79;42.47
45991;BME280;31721;41.740;-88.000;2023-03-18T05:53:13;98655.51;;;-7.03;43.26
45991;BME280;31721;41.740;-88.000;2023-03-18T05:55:42;98649.50;;;-6.91;42.95
45991;BME280;31721;41.740;-88.000;2023-03-18T05:58:09;98655.83;;;-7.22;42.06
45991;BME280;31721;41.740;-88.000;2023-03-18T06:00:37;98651.01;;;-6.81;43.27
45991;BME280;31721;41.740;-88.000;2023-03-18T06:03:05;98656.53;;;-6.52;43.01
45991;BME280;31721;41.740;-88.000;2023-03-18T06:05:33;98662.32;;;-6.38;43.30
45991;BME280;31721;41.740;-88.000;2023-03-18T06:08:01;98661.57;;;-6.41;43.26
45991;BME280;31721;41.740;-88.000;2023-03-18T06:10:29;98661.69;;;-6.44;42.59
45991;BME280;31721;41.740;-88.000;2023-03-18T06:12:56;98658.30;;;-7.83;43.02
45991;BME280;31721;41.740;-88.000;2023-03-18T06:15:24;98652.92;;;-7.46;42.96
45991;BME280;31721;41.740;-88.000;2023-03-18T06:17:52;98656.92;;;-7.33;43.23
45991;BME280;31721;41.740;-88.000;2023-03-18T06:20:21;98659.55;;;-7.06;43.45
45991;BME280;31721;41.740;-88.000;2023-03-18T06:22:49;98663.66;;;-7.31;43.41
45991;BME280;31721;41.740;-88.000;2023-03-18T06:25:19;98654.58;;;-7.57;42.59
45991;BME280;31721;41.740;-88.000;2023-03-18T06:27:47;98658.84;;;-7.32;43.42
45991;BME280;31721;41.740;-88.000;2023-03-18T06:30:16;98647.38;;;-7.78;43.56
45991;BME280;31721;41.740;-88.000;2023-03-18T06:32:45;98648.13;;;-8.11;43.65
45991;BME280;31721;41.740;-88.000;2023-03-18T06:35:13;98649.40;;;-7.78;44.16
45991;BME280;31721;41.740;-88.000;2023-03-18T06:37:42;98647.57;;;-7.96;44.35
45991;BME280;31721;41.740;-88.000;2023-03-18T06:40:10;98636.66;;;-7.86;44.28
45991;BME280;31721;41.740;-88.000;2023-03-18T06:42:38;98650.15;;;-7.99;43.66
45991;BME280;31721;41.740;-88.000;2023-03-18T06:45:07;98657.91;;;-8.05;43.73
45991;BME280;31721;41.740;-88.000;2023-03-18T06:47:35;98648.53;;;-7.86;44.10
45991;BME280;31721;41.740;-88.000;2023-03-18T06:50:03;98655.01;;;-7.60;44.49
45991;BME280;31721;41.740;-88.000;2023-03-18T06:52:31;98663.34;;;-7.68;43.94
45991;BME280;31721;41.740;-88.000;2023-03-18T06:54:59;98656.04;;;-7.97;44.12
45991;BME280;31721;41.740;-88.000;2023-03-18T06:57:27;98656.76;;;-7.43;44.30
45991;BME280;31721;41.740;-88.000;2023-03-18T06:59:55;98659.23;;;-7.48;44.11
45991;BME280;31721;41.740;-88.000;2023-03-18T07:02:23;98662.98;;;-7.26;44.62
45991;BME280;31721;41.740;-88.000;2023-03-18T07:04:51;98662.05;;;-6.86;43.68
45991;BME280;31721;41.740;-88.000;2023-03-18T07:07:20;98662.92;;;-6.67;43.85
45991;BME280;31721;41.740;-88.000;2023-03-18T07:09:47;98659.89;;;-6.54;43.51
45991;BME280;31721;41.740;-88.000;2023-03-18T07:12:15;98666.26;;;-6.84;43.07
45991;BME280;31721;41.740;-88.000;2023-03-18T07:14:43;98668.87;;;-6.50;43.03
45991;BME280;31721;41.740;-88.000;2023-03-18T07:17:13;98669.09;;;-6.64;43.14
45991;BME280;31721;41.740;-88.000;2023-03-18T07:19:41;98657.94;;;-6.37;42.92
45991;BME280;31721;41.740;-88.000;2023-03-18T07:22:10;98665.10;;;-6.49;42.53
45991;BME280;31721;41.740;-88.000;2023-03-18T07:24:37;98665.91;;;-7.03;43.07
45991;BME280;31721;41.740;-88.000;2023-03-18T07:27:05;98660.34;;;-6.43;42.68
45991;BME280;31721;41.740;-88.000;2023-03-18T07:29:33;98656.71;;;-6.22;42.27
45991;BME280;31721;41.740;-88.000;2023-03-18T07:32:01;98657.74;;;-6.97;43.15
45991;BME280;31721;41.740;-88.000;2023-03-18T07:34:29;98658.91;;;-6.93;43.11
45991;BME280;31721;41.740;-88.000;2023-03-18T07:36:57;98651.87;;;-6.56;43.14
45991;BME280;31721;41.740;-88.000;2023-03-18T07:39:25;98651.74;;;-6.50;42.95
45991;BME280;31721;41.740;-88.000;2023-03-18T07:41:53;98653.54;;;-6.39;42.93
45991;BME280;31721;41.740;-88.000;2023-03-18T07:44:21;98654.25;;;-6.28;42.76
45991;BME280;31721;41.740;-88.000;2023-03-18T07:46:49;98658.78;;;-6.67;43.30
45991;BME280;31721;41.740;-88.000;2023-03-18T07:49:17;98653.50;;;-6.31;43.17
45991;BME280;31721;41.740;-88.000;2023-03-18T07:51:44;98656.02;;;-6.54;43.59
45991;BME280;31721;41.740;-88.000;2023-03-18T07:54:12;98653.78;;;-6.44;43.79
45991;BME280;31721;41.740;-88.000;2023-03-18T07:56:41;98655.82;;;-6.30;44.23
45991;BME280;31721;41.740;-88.000;2023-03-18T07:59:09;98650.97;;;-6.37;45.32
45991;BME280;31721;41.740;-88.000;2023-03-18T08:01:37;98654.43;;;-7.15;48.99
45991;BME280;31721;41.740;-88.000;2023-03-18T08:04:05;98656.23;;;-6.90;47.15
45991;BME280;31721;41.740;-88.000;2023-03-18T08:06:33;98665.78;;;-7.54;50.99
45991;BME280;31721;41.740;-88.000;2023-03-18T08:09:01;98665.20;;;-7.30;47.96
45991;BME280;31721;41.740;-88.000;2023-03-18T08:11:29;98665.75;;;-7.25;48.20
45991;BME280;31721;41.740;-88.000;2023-03-18T08:13:56;98662.06;;;-7.31;48.44
45991;BME280;31721;41.740;-88.000;2023-03-18T08:16:24;98684.91;;;-7.70;49.49
45991;BME280;31721;41.740;-88.000;2023-03-18T08:18:52;98670.15;;;-7.39;48.22
45991;BME280;31721;41.740;-88.000;2023-03-18T08:21:20;98651.02;;;-7.27;48.22
45991;BME280;31721;41.740;-88.000;2023-03-18T08:23:48;98661.52;;;-6.78;46.28
45991;BME280;31721;41.740;-88.000;2023-03-18T08:26:16;98662.76;;;-7.28;46.09
45991;BME280;31721;41.740;-88.000;2023-03-18T08:28:43;98654.09;;;-7.09;45.24
45991;BME280;31721;41.740;-88.000;2023-03-18T08:31:12;98652.72;;;-6.94;43.20
45991;BME280;31721;41.740;-88.000;2023-03-18T08:33:40;98654.94;;;-7.31;43.80
45991;BME280;31721;41.740;-88.000;2023-03-18T08:36:08;98656.03;;;-7.72;44.33
45991;BME280;31721;41.740;-88.000;2023-03-18T08:38:36;98649.51;;;-7.35;42.56
45991;BME280;31721;41.740;-88.000;2023-03-18T08:41:04;98665.83;;;-7.87;43.91
45991;BME280;31721;41.740;-88.000;2023-03-18T08:43:31;98662.04;;;-7.89;43.14
45991;BME280;31721;41.740;-88.000;2023-03-18T08:45:59;98655.46;;;-7.88;42.79
45991;BME280;31721;41.740;-88.000;2023-03-18T08:48:27;98660.54;;;-7.91;42.68
45991;BME280;31721;41.740;-88.000;2023-03-18T08:50:55;98662.91;;;-8.44;43.84
45991;BME280;31721;41.740;-88.000;2023-03-18T08:53:23;98660.59;;;-8.12;42.81
45991;BME280;31721;41.740;-88.000;2023-03-18T08:55:51;98658.83;;;-8.43;42.99
45991;BME280;31721;41.740;-88.000;2023-03-18T08:58:19;98658.26;;;-8.40;43.40
45991;BME280;31721;41.740;-88.000;2023-03-18T09:00:47;98659.84;;;-8.47;43.69
45991;BME280;31721;41.740;-88.000;2023-03-18T09:03:15;98665.72;;;-8.33;43.43
45991;BME280;31721;41.740;-88.000;2023-03-18T09:05:43;98662.16;;;-8.71;44.15
45991;BME280;31721;41.740;-88.000;2023-03-18T09:08:13;98666.31;;;-8.84;44.09
45991;BME280;31721;41.740;-88.000;2023-03-18T09:10:43;98665.32;;;-8.96;44.66
45991;BME280;31721;41.740;-88.000;2023-03-18T09:13:12;98666.30;;;-9.20;45.10
45991;BME280;31721;41.740;-88.000;2023-03-18T09:15:40;98664.15;;;-8.89;44.92
45991;BME280;31721;41.740;-88.000;2023-03-18T09:18:08;98660.25;;;-8.98;44.47
45991;BME280;31721;41.740;-88.000;2023-03-18T09:20:35;98663.84;;;-8.69;44.31
45991;BME280;31721;41.740;-88.000;2023-03-18T09:23:03;98668.22;;;-8.39;43.83
45991;BME280;31721;41.740;-88.000;2023-03-18T09:25:31;98655.53;;;-8.56;43.76
45991;BME280;31721;41.740;-88.000;2023-03-18T09:28:00;98668.30;;;-8.87;44.13
45991;BME280;31721;41.740;-88.000;2023-03-18T09:30:28;98661.95;;;-8.95;44.40
45991;BME280;31721;41.740;-88.000;2023-03-18T09:32:55;98664.85;;;-8.84;44.28
45991;BME280;31721;41.740;-88.000;2023-03-18T09:35:24;98676.58;;;-9.00;44.46
45991;BME280;31721;41.740;-88.000;2023-03-18T09:37:51;98674.63;;;-9.23;45.22
45991;BME280;31721;41.740;-88.000;2023-03-18T09:40:24;98674.71;;;-9.48;45.28
45991;BME280;31721;41.740;-88.000;2023-03-18T09:43:02;98682.84;;;-9.24;45.02
45991;BME280;31721;41.740;-88.000;2023-03-18T09:45:35;98688.08;;;-9.27;45.23
45991;BME280;31721;41.740;-88.000;2023-03-18T09:48:35;98689.29;;;-8.76;45.08
45991;BME280;31721;41.740;-88.000;2023-03-18T09:51:11;98691.10;;;-8.86;44.58
45991;BME280;31721;41.740;-88.000;2023-03-18T09:53:47;98680.08;;;-8.69;43.26
45991;BME280;31721;41.740;-88.000;2023-03-18T09:56:20;98695.67;;;-9.20;43.88
45991;BME280;31721;41.740;-88.000;2023-03-18T09:58:55;98697.57;;;-9.16;43.67
45991;BME280;31721;41.740;-88.000;2023-03-18T10:01:26;98699.06;;;-8.81;44.25
45991;BME280;31721;41.740;-88.000;2023-03-18T10:04:00;98704.41;;;-9.57;43.94
45991;BME280;31721;41.740;-88.000;2023-03-18T10:06:30;98710.83;;;-9.77;44.84
45991;BME280;31721;41.740;-88.000;2023-03-18T10:09:07;98709.37;;;-9.39;44.91
45991;BME280;31721;41.740;-88.000;2023-03-18T10:11:41;98715.19;;;-9.37;45.01
45991;BME280;31721;41.740;-88.000;2023-03-18T10:14:19;98716.49;;;-9.35;44.95
45991;BME280;31721;41.740;-88.000;2023-03-18T10:16:59;98724.55;;;-9.39;44.94
45991;BME280;31721;41.740;-88.000;2023-03-18T10:19:29;98725.86;;;-9.40;45.32
45991;BME280;31721;41.740;-88.000;2023-03-18T10:22:10;98724.17;;;-9.40;45.81
45991;BME280;31721;41.740;-88.000;2023-03-18T10:24:49;98732.07;;;-9.13;45.37
45991;BME280;31721;41.740;-88.000;2023-03-18T10:27:25;98724.25;;;-9.99;45.52
45991;BME280;31721;41.740;-88.000;2023-03-18T10:30:05;98726.43;;;-9.55;
45991;BME280;31721;41.740;-88.000;2023-03-18T10:32:44;98733.19;;;-10.20;44.98
45991;BME280;31721;41.740;-88.000;2023-03-18T10:35:28;98739.33;;;-10.91;45.33
45991;BME280;31721;41.740;-88.000;2023-03-18T10:38:02;98742.43;;;-9.93;45.32
45991;BME280;31721;41.740;-88.000;2023-03-18T10:40:34;98742.44;;;-10.28;45.33
45991;BME280;31721;41.740;-88.000;2023-03-18T10:43:05;98734.47;;;-11.17;44.90
45991;BME280;31721;41.740;-88.000;2023-03-18T10:45:40;98756.37;;;-11.02;45.16
45991;BME280;31721;41.740;-88.000;2023-03-18T10:48:14;98766.53;;;-10.72;44.54
45991;BME280;31721;41.740;-88.000;2023-03-18T10:50:48;98769.32;;;-11.09;45.10
45991;BME280;31721;41.740;-88.000;2023-03-18T10:53:22;98779.15;;;-11.00;45.23
45991;BME280;31721;41.740;-88.000;2023-03-18T10:55:59;98778.63;;;-10.70;44.99
45991;BME280;31721;41.740;-88.000;2023-03-18T10:58:28;98776.47;;;-9.97;44.05
45991;BME280;31721;41.740;-88.000;2023-03-18T11:00:56;98773.04;;;-9.91;44.15
45991;BME280;31721;41.740;-88.000;2023-03-18T11:03:26;98791.87;;;-10.18;44.54
45991;BME280;31721;41.740;-88.000;2023-03-18T11:05:56;98796.86;;;-10.80;44.08
45991;BME280;31721;41.740;-88.000;2023-03-18T11:08:29;98804.07;;;-10.49;44.37
45991;BME280;31721;41.740;-88.000;2023-03-18T11:10:58;98792.68;;;-10.58;44.43
45991;BME280;31721;41.740;-88.000;2023-03-18T11:13:28;98792.23;;;-10.86;44.99
45991;BME280;31721;41.740;-88.000;2023-03-18T11:15:56;98788.64;;;-11.24;45.45
45991;BME280;31721;41.740;-88.000;2023-03-18T11:18:26;98796.78;;;-10.91;45.44
45991;BME280;31721;41.740;-88.000;2023-03-18T11:20:56;98801.93;;;-11.26;45.86
45991;BME280;31721;41.740;-88.000;2023-03-18T11:23:34;98797.18;;;-10.46;45.13
45991;BME280;31721;41.740;-88.000;2023-03-18T11:26:02;98800.91;;;-10.41;44.91
45991;BME280;31721;41.740;-88.000;2023-03-18T11:28:40;98805.13;;;-10.86;45.40
45991;BME280;31721;41.740;-88.000;2023-03-18T11:31:15;98806.13;;;-10.39;45.17
45991;BME280;31721;41.740;-88.000;2023-03-18T11:33:43;98811.53;;;-10.55;45.39
45991;BME280;31721;41.740;-88.000;2023-03-18T11:36:16;98813.64;;;-11.47;46.19
45991;BME280;31721;41.740;-88.000;2023-03-18T11:38:55;98820.47;;;-11.40;46.03
45991;BME280;31721;41.740;-88.000;2023-03-18T11:41:25;98819.88;;;-11.33;46.73
45991;BME280;31721;41.740;-88.000;2023-03-18T11:43:55;98823.42;;;-11.10;46.77
45991;BME280;31721;41.740;-88.000;2023-03-18T11:46:25;98822.99;;;-11.12;46.35
45991;BME280;31721;41.740;-88.000;2023-03-18T11:48:55;98825.18;;;-11.06;47.01
45991;BME280;31721;41.740;-88.000;2023-03-18T11:51:45;98832.04;;;-11.04;46.88
45991;BME280;31721;41.740;-88.000;2023-03-18T11:54:35;98826.75;;;-11.31;47.12
45991;BME280;31721;41.740;-88.000;2023-03-18T11:57:14;98836.91;;;-11.00;47.39
45991;BME280;31721;41.740;-88.000;2023-03-18T11:59:53;98839.73;;;-11.21;47.34
45991;BME280;31721;41.740;-88.000;2023-03-18T12:02:34;98846.06;;;-11.26;46.90
45991;BME280;31721;41.740;-88.000;2023-03-18T12:05:33;98850.91;;;-10.70;47.13
45991;BME280;31721;41.740;-88.000;2023-03-18T12:08:12;98847.94;;;-11.03;46.81
45991;BME280;31721;41.740;-88.000;2023-03-18T12:10:45;98856.76;;;-11.60;46.69
45991;BME280;31721;41.740;-88.000;2023-03-18T12:13:29;98859.41;;;-11.81;48.13
45991;BME280;31721;41.740;-88.000;2023-03-18T12:16:06;98867.92;;;-11.51;47.73
45991;BME280;31721;41.740;-88.000;2023-03-18T12:18:49;98875.46;;;-11.54;46.75
45991;BME280;31721;41.740;-88.000;2023-03-18T12:21:35;98879.23;;;-11.32;46.66
45991;BME280;31721;41.740;-88.000;2023-03-18T12:24:20;98883.67;;;-11.50;47.62
45991;BME280;31721;41.740;-88.000;2023-03-18T12:26:58;98883.18;;;-11.59;47.66
45991;BME280;31721;41.740;-88.000;2023-03-18T12:29:41;98883.83;;;-11.55;47.59
45991;BME280;31721;41.740;-88.000;2023-03-18T12:32:25;98886.86;;;-11.42;48.29
45991;BME280;31721;41.740;-88.000;2023-03-18T12:35:07;98891.65;;;-11.94;48.99
45991;BME280;31721;41.740;-88.000;2023-03-18T12:37:51;98894.07;;;-11.93;49.34
45991;BME280;31721;41.740;-88.000;2023-03-18T12:40:33;98904.83;;;-12.47;50.45
45991;BME280;31721;41.740;-88.000;2023-03-18T12:43:22;98905.87;;;-11.80;49.55
45991;BME280;31721;41.740;-88.000;2023-03-18T12:45:57;98914.02;;;-12.05;50.07
45991;BME280;31721;41.740;-88.000;2023-03-18T12:48:31;98917.68;;;-11.91;49.33
45991;BME280;31721;41.740;-88.000;2023-03-18T12:51:04;98920.66;;;-11.27;48.49
45991;BME280;31721;41.740;-88.000;2023-03-18T12:53:36;98930.13;;;-11.41;48.36